Time;durP1;ratioP1;P1;durP2;ratioP2;P2;SDS_P1;SDS_P2;PMS_P1;PMS_P2;Temp;Humidity;BMP_temperature;BMP_pressure;BME280_temperature;BME280_humidity;BME280_pressure;Samples;Min_cycle;Max_cycle;Signal;HPM_P1;HPM_P2
2021/07/20 00:00:34;;;;;;;16.55;5.35;;;;;;;14.69;72.27;100416.30;125810;1092;23177;-55
2021/07/20 00:03:17;;;;;;;19.60;6.00;;;;;;;14.67;72.52;100416.78;125731;1093;26245;-56
2021/07/20 00:05:48;;;;;;;15.85;6.25;;;;;;;14.64;72.28;100420.61;125781;1093;22821;-53
2021/07/20 00:08:20;;;;;;;18.50;6.10;;;;;;;14.66;72.57;100414.48;125745;1093;22763;-56
2021/07/20 00:10:53;;;;;;;19.73;6.73;;;;;;;14.64;72.56;100423.42;125679;1093;22906;-57
2021/07/20 00:13:25;;;;;;;20.83;6.60;;;;;;;14.63;72.71;100421.88;125785;1093;22807;-56
2021/07/20 00:15:58;;;;;;;19.60;6.60;;;;;;;14.64;72.45;100417.80;125709;1093;22768;-54
2021/07/20 00:18:33;;;;;;;21.23;6.80;;;;;;;14.65;72.59;100416.52;125862;1093;28439;-58
2021/07/20 00:21:07;;;;;;;19.85;6.85;;;;;;;14.67;72.50;100411.16;125734;1093;22765;-54
2021/07/20 00:23:40;;;;;;;20.50;7.40;;;;;;;14.68;72.43;100409.13;125829;1093;22839;-55
2021/07/20 00:26:12;;;;;;;18.50;6.50;;;;;;;14.67;72.71;100404.80;125759;1093;22761;-55
2021/07/20 00:28:44;;;;;;;17.75;6.60;;;;;;;14.65;73.10;100407.34;125886;1093;23524;-57
2021/07/20 00:31:15;;;;;;;19.70;6.50;;;;;;;14.59;72.94;100410.88;125809;1093;22928;-57
2021/07/20 00:33:47;;;;;;;20.07;6.10;;;;;;;14.57;72.92;100410.61;125806;1093;25865;-55
2021/07/20 00:36:21;;;;;;;16.95;6.25;;;;;;;14.54;73.03;100408.83;125785;1093;22793;-57
2021/07/20 00:38:52;;;;;;;22.20;6.33;;;;;;;14.51;73.35;100401.39;125708;1093;22749;-57
2021/07/20 00:41:26;;;;;;;17.60;6.00;;;;;;;14.50;73.37;100407.52;125720;1092;22791;-56
2021/07/20 00:43:58;;;;;;;21.90;6.80;;;;;;;14.47;72.97;100403.66;125682;1093;22794;-56
2021/07/20 00:46:29;;;;;;;19.50;6.35;;;;;;;14.47;73.61;100403.66;125695;1093;26282;-55
2021/07/20 00:49:01;;;;;;;17.53;5.87;;;;;;;14.47;73.25;100400.86;125699;1092;25976;-57
2021/07/20 00:51:32;;;;;;;19.30;6.30;;;;;;;14.48;73.35;100410.06;125696;1092;22841;-54
2021/07/20 00:54:04;;;;;;;19.70;6.35;;;;;;;14.46;73.77;100404.92;125731;1093;22758;-57
2021/07/20 00:56:37;;;;;;;15.75;6.25;;;;;;;14.45;73.97;100400.59;125828;1093;22764;-54
2021/07/20 00:59:17;;;;;;;17.10;6.15;;;;;;;14.41;73.90;100397.25;125716;1093;22942;-55
2021/07/20 01:01:49;;;;;;;18.95;6.60;;;;;;;14.39;74.23;100394.17;125784;1093;22764;-54
2021/07/20 01:04:21;;;;;;;14.35;4.95;;;;;;;14.38;74.16;100400.30;125786;1093;22772;-53
2021/07/20 01:06:57;;;;;;;18.70;7.37;;;;;;;14.37;74.29;100390.32;125813;1093;22821;-57
2021/07/20 01:09:30;;;;;;;20.03;6.93;;;;;;;14.36;74.54;100397.22;125927;1093;23088;-56
2021/07/20 01:12:01;;;;;;;22.90;7.03;;;;;;;14.36;74.41;100397.97;125809;1093;22815;-57
2021/07/20 01:14:34;;;;;;;17.25;6.00;;;;;;;14.36;74.36;100388.80;125950;1092;22797;-56
2021/07/20 01:17:07;;;;;;;19.40;6.10;;;;;;;14.37;74.58;100398.75;125761;1093;24542;-55
2021/07/20 01:19:45;;;;;;;19.53;6.07;;;;;;;14.37;74.75;100396.72;125835;1093;24522;-56
2021/07/20 01:22:20;;;;;;;16.55;6.05;;;;;;;14.39;74.68;100390.59;125659;1092;22767;-56
2021/07/20 01:24:53;;;;;;;18.00;6.75;;;;;;;14.38;74.77;100395.43;125895;1093;22797;-55
2021/07/20 01:27:25;;;;;;;17.40;5.50;;;;;;;14.37;75.07;100384.70;125740;1093;22767;-55
2021/07/20 01:29:58;;;;;;;20.67;6.90;;;;;;;14.36;75.16;100389.55;125846;1093;22790;-56
2021/07/20 01:32:30;;;;;;;19.10;6.05;;;;;;;14.38;75.02;100377.83;125941;1093;22803;-54
2021/07/20 01:35:03;;;;;;;19.70;7.90;;;;;;;14.37;74.89;100381.89;125828;1092;22758;-55
2021/07/20 01:37:37;;;;;;;16.37;5.70;;;;;;;14.37;75.48;100373.47;125732;1093;22770;-55
2021/07/20 01:40:11;;;;;;;17.20;6.20;;;;;;;14.36;75.26;100369.89;125853;1092;24432;-56
2021/07/20 01:42:45;;;;;;;18.53;5.90;;;;;;;14.36;75.15;100367.08;125879;1093;22763;-54
2021/07/20 01:45:17;;;;;;;18.80;6.40;;;;;;;14.36;75.40;100369.14;125756;1093;22767;-57
2021/07/20 01:47:51;;;;;;;21.05;6.15;;;;;;;14.36;75.12;100374.75;125789;1092;22787;-55
2021/07/20 01:50:24;;;;;;;16.70;6.00;;;;;;;14.34;75.19;100375.23;125696;1093;22768;-57
2021/07/20 01:52:56;;;;;;;15.23;5.90;;;;;;;14.33;75.39;100373.71;125802;1092;22804;-56
2021/07/20 01:55:28;;;;;;;16.50;6.05;;;;;;;14.31;75.35;100370.64;125786;1092;22771;-55
2021/07/20 01:58:01;;;;;;;18.50;6.90;;;;;;;14.29;75.67;100366.79;125849;1093;24433;-57
2021/07/20 02:00:32;;;;;;;18.70;6.70;;;;;;;14.26;75.76;100374.14;125637;1093;27548;-55
2021/07/20 02:03:17;;;;;;;16.50;5.75;;;;;;;14.24;75.91;100373.09;125807;1093;22767;-56
2021/07/20 02:08:47;;;;;;;19.97;6.40;;;;;;;14.19;75.84;100374.63;125752;1093;22803;-56
2021/07/20 02:11:23;;;;;;;18.85;6.65;;;;;;;14.17;75.45;100379.20;125895;1093;22784;-56
2021/07/20 02:14:02;;;;;;;16.60;6.40;;;;;;;14.16;75.61;100374.83;125757;1093;27204;-55
2021/07/20 02:16:39;;;;;;;18.47;6.23;;;;;;;14.15;75.73;100376.12;125743;1093;22829;-56
2021/07/20 02:19:14;;;;;;;20.23;6.93;;;;;;;14.14;75.74;100380.19;125831;1093;22770;-54
2021/07/20 02:21:50;;;;;;;15.50;5.27;;;;;;;14.12;76.05;100377.88;125739;1093;22764;-54
2021/07/20 02:24:27;;;;;;;19.25;5.55;;;;;;;14.12;76.22;100377.11;125706;1093;25868;-55
2021/07/20 02:26:59;;;;;;;18.65;6.40;;;;;;;14.11;75.98;100373.52;125801;1092;22780;-58
2021/07/20 02:29:32;;;;;;;18.25;6.10;;;;;;;14.12;76.46;100371.48;125945;1093;22727;-56
2021/07/20 02:32:06;;;;;;;19.47;6.20;;;;;;;14.14;76.34;100371.77;126016;1093;22820;-54
2021/07/20 02:34:40;;;;;;;20.40;6.70;;;;;;;14.16;76.22;100372.03;125815;1093;22794;-56
2021/07/20 02:37:12;;;;;;;19.15;5.80;;;;;;;14.18;76.33;100375.10;125729;1093;22768;-56
2021/07/20 02:39:45;;;;;;;19.17;6.50;;;;;;;14.18;76.57;100381.49;125898;1093;22813;-55
2021/07/20 02:42:18;;;;;;;18.05;6.35;;;;;;;14.18;76.27;100375.88;125876;1093;22793;-58
2021/07/20 02:44:52;;;;;;;15.27;5.43;;;;;;;14.19;76.70;100377.43;125746;1093;26251;-54
2021/07/20 02:47:24;;;;;;;20.10;6.35;;;;;;;14.21;76.76;100383.31;125794;1093;26305;-56
2021/07/20 02:49:57;;;;;;;17.03;5.87;;;;;;;14.21;76.69;100380.50;125756;1093;22840;-57
2021/07/20 02:52:30;;;;;;;21.20;6.40;;;;;;;14.21;77.09;100386.13;125765;1093;27227;-55
2021/07/20 02:55:04;;;;;;;18.73;5.87;;;;;;;14.20;77.05;100380.98;125738;1092;22771;-56
2021/07/20 02:57:37;;;;;;;20.90;6.10;;;;;;;14.19;76.96;100380.23;125711;1093;23502;-58
2021/07/20 03:00:11;;;;;;;17.63;5.87;;;;;;;14.17;77.19;100387.62;125809;1092;22844;-57
2021/07/20 03:02:46;;;;;;;20.20;6.55;;;;;;;14.15;77.47;100381.73;125739;1093;22796;-56
2021/07/20 03:05:20;;;;;;;18.10;6.37;;;;;;;14.14;77.62;100385.80;125875;1093;22797;-55
2021/07/20 03:07:54;;;;;;;20.70;6.40;;;;;;;14.14;77.43;100380.95;125991;1093;22767;-56
2021/07/20 03:10:29;;;;;;;16.20;5.60;;;;;;;14.15;77.42;100381.73;125921;1093;22847;-56
2021/07/20 03:13:06;;;;;;;15.43;5.87;;;;;;;14.16;77.54;100372.03;125795;1093;22763;-55
2021/07/20 03:15:41;;;;;;;18.30;6.60;;;;;;;14.16;77.31;100377.64;125719;1093;22782;-56
2021/07/20 03:18:14;;;;;;;17.75;5.75;;;;;;;14.15;77.51;100373.31;125766;1093;22742;-54
2021/07/20 03:20:47;;;;;;;20.07;5.20;;;;;;;14.15;77.34;100373.31;125751;1093;22767;-56
2021/07/20 03:23:21;;;;;;;15.70;6.03;;;;;;;14.14;77.82;100377.38;126338;1093;26232;-58
2021/07/20 03:25:55;;;;;;;19.43;5.87;;;;;;;14.15;77.92;100381.73;125698;1093;22816;-56
2021/07/20 03:28:28;;;;;;;19.03;5.20;;;;;;;14.15;77.70;100381.73;125570;1093;22804;-58
2021/07/20 03:31:01;;;;;;;20.33;7.03;;;;;;;14.14;77.70;100378.15;125681;1092;24497;-56
2021/07/20 03:33:35;;;;;;;19.47;6.70;;;;;;;14.15;77.96;100373.31;125541;1093;22847;-58
2021/07/20 03:36:08;;;;;;;18.25;6.80;;;;;;;14.17;77.63;100382.00;125916;1093;26261;-59
2021/07/20 03:38:40;;;;;;;18.60;5.80;;;;;;;14.17;77.53;100377.16;126008;1093;22767;-58
2021/07/20 03:41:13;;;;;;;18.27;6.10;;;;;;;14.21;77.50;100388.16;125750;1093;22797;-58
2021/07/20 03:43:45;;;;;;;17.60;6.45;;;;;;;14.24;77.66;100384.33;125739;1093;22761;-58
2021/07/20 03:46:17;;;;;;;23.40;6.70;;;;;;;14.24;78.04;100379.48;125650;1093;26293;-59
2021/07/20 03:48:48;;;;;;;21.23;6.93;;;;;;;14.27;77.68;100377.72;125744;1093;22803;-60
2021/07/20 03:51:21;;;;;;;26.57;6.43;;;;;;;14.29;78.08;100383.64;125787;1092;22803;-57
2021/07/20 03:53:53;;;;;;;18.45;6.25;;;;;;;14.31;77.99;100381.88;125908;1093;22940;-57
2021/07/20 03:56:25;;;;;;;17.25;6.15;;;;;;;14.34;78.01;100377.27;125902;1093;22793;-60
2021/07/20 03:58:59;;;;;;;16.05;5.55;;;;;;;14.35;77.66;100379.59;125810;1093;22819;-60
2021/07/20 04:01:35;;;;;;;15.85;5.50;;;;;;;14.39;77.95;100382.16;125760;1093;23612;-54
2021/07/20 04:04:11;;;;;;;16.10;5.25;;;;;;;14.41;77.72;100377.59;125750;1093;26537;-57
2021/07/20 04:06:43;;;;;;;16.30;5.27;;;;;;;14.47;77.71;100380.41;125738;1093;22770;-58
2021/07/20 04:09:16;;;;;;;20.70;5.77;;;;;;;14.52;77.72;100388.12;125739;1093;22793;-59
2021/07/20 04:11:48;;;;;;;17.75;5.95;;;;;;;14.57;77.80;100387.36;125791;1093;22754;-58
2021/07/20 04:14:21;;;;;;;16.35;5.45;;;;;;;14.62;77.63;100377.43;125778;1093;22784;-59
2021/07/20 04:16:53;;;;;;;18.90;5.60;;;;;;;14.68;77.53;100379.00;125782;1093;22858;-58
2021/07/20 04:19:25;;;;;;;16.50;5.50;;;;;;;14.73;77.57;100377.48;125856;1093;22748;-59
2021/07/20 04:21:58;;;;;;;17.45;5.55;;;;;;;14.79;77.55;100381.09;125745;1092;22806;-55
2021/07/20 04:24:31;;;;;;;19.03;5.47;;;;;;;14.84;77.46;100377.52;125743;1093;26531;-58
2021/07/20 04:27:05;;;;;;;20.90;5.90;;;;;;;14.90;77.56;100383.92;125913;1093;25855;-57
2021/07/20 04:29:37;;;;;;;16.27;5.53;;;;;;;14.95;77.25;100383.97;125865;1093;27627;-60
2021/07/20 04:32:11;;;;;;;18.25;5.55;;;;;;;15.01;77.12;100389.59;125968;1093;22764;-60
2021/07/20 04:34:44;;;;;;;18.10;5.50;;;;;;;15.04;77.18;100394.97;126021;1093;22928;-58
2021/07/20 04:37:16;;;;;;;20.90;5.83;;;;;;;15.08;77.25;100392.67;125901;1093;25941;-60
2021/07/20 04:39:48;;;;;;;16.95;5.60;;;;;;;15.12;77.10;100398.85;125860;1093;22794;-60
2021/07/20 04:42:20;;;;;;;15.90;6.10;;;;;;;15.18;77.07;100396.83;125835;1092;22773;-59
2021/07/20 04:44:51;;;;;;;17.67;5.63;;;;;;;15.25;76.89;100392.72;125992;1093;22770;-58
2021/07/20 04:47:23;;;;;;;17.90;5.20;;;;;;;15.32;76.83;100398.64;125871;1093;22793;-60
2021/07/20 04:49:57;;;;;;;18.80;5.30;;;;;;;15.38;76.58;100399.42;125800;1093;24430;-61
2021/07/20 04:52:29;;;;;;;15.30;5.20;;;;;;;15.41;76.69;100395.58;125886;1093;22847;-61
2021/07/20 04:55:01;;;;;;;15.90;5.00;;;;;;;15.48;76.63;100399.22;125911;1093;22759;-64
2021/07/20 04:57:33;;;;;;;16.50;5.70;;;;;;;15.52;76.44;100400.48;125967;1093;22765;-64
2021/07/20 05:00:07;;;;;;;17.67;5.03;;;;;;;15.55;76.35;100399.48;125857;1093;22822;-64
2021/07/20 05:02:42;;;;;;;18.10;5.00;;;;;;;15.57;75.69;100404.59;125967;1093;22771;-63
2021/07/20 05:05:18;;;;;;;18.50;5.80;;;;;;;15.59;76.27;100411.25;126018;1092;22779;-64
2021/07/20 05:07:50;;;;;;;20.45;4.65;;;;;;;15.65;75.95;100405.62;125913;1093;22822;-64
2021/07/20 05:10:23;;;;;;;15.10;4.80;;;;;;;15.69;75.57;100411.77;125875;1093;22793;-67
2021/07/20 05:12:56;;;;;;;17.20;5.00;;;;;;;15.71;75.48;100409.20;125910;1093;22761;-61
2021/07/20 05:15:27;;;;;;;17.20;4.40;;;;;;;15.74;75.95;100417.42;125998;1093;22771;-62
2021/07/20 05:18:00;;;;;;;19.05;5.20;;;;;;;15.79;75.96;100415.86;125683;1093;22794;-62
2021/07/20 05:20:32;;;;;;;17.20;4.65;;;;;;;15.84;75.62;100418.70;126624;1093;22791;-62
2021/07/20 05:23:04;;;;;;;14.20;4.17;;;;;;;15.89;75.03;100426.36;126027;1092;26258;-62
2021/07/20 05:25:38;;;;;;;15.30;5.30;;;;;;;15.93;75.35;100437.39;126030;1093;22804;-62
2021/07/20 05:28:12;;;;;;;18.45;5.20;;;;;;;15.97;75.33;100424.57;125813;1093;22811;-62
2021/07/20 05:30:45;;;;;;;15.25;4.60;;;;;;;15.99;74.24;100432.52;125973;1093;26327;-62
2021/07/20 05:33:21;;;;;;;14.30;4.20;;;;;;;15.98;74.56;100428.16;125870;1093;22770;-62
2021/07/20 05:35:54;;;;;;;17.07;5.20;;;;;;;16.01;74.86;100438.41;125861;1093;27626;-62
2021/07/20 05:38:26;;;;;;;19.10;4.93;;;;;;;16.04;74.82;100434.55;125828;1093;22821;-62
2021/07/20 05:41:00;;;;;;;12.13;3.77;;;;;;;16.09;74.58;100436.62;125811;1093;27365;-62
2021/07/20 05:43:33;;;;;;;15.60;4.50;;;;;;;16.14;74.72;100433.79;125811;1093;22905;-61
2021/07/20 05:46:06;;;;;;;18.00;4.53;;;;;;;16.20;74.52;100443.00;125907;1093;23720;-62
2021/07/20 05:48:39;;;;;;;12.95;4.10;;;;;;;16.26;74.03;100445.83;125825;1093;22770;-62
2021/07/20 05:51:11;;;;;;;16.45;4.30;;;;;;;16.27;73.76;100441.72;125826;1093;22770;-62
2021/07/20 05:53:43;;;;;;;15.30;4.70;;;;;;;16.31;73.93;100450.67;125896;1093;22799;-62
2021/07/20 05:56:16;;;;;;;15.10;4.60;;;;;;;16.38;74.55;100452.98;125741;1093;22784;-61
2021/07/20 05:58:48;;;;;;;13.80;4.40;;;;;;;16.46;74.08;100456.81;125768;1093;26995;-62
2021/07/20 06:01:19;;;;;;;17.70;4.85;;;;;;;16.53;73.94;100456.30;125791;1092;22783;-62
2021/07/20 06:03:52;;;;;;;15.43;4.50;;;;;;;16.59;73.55;100457.09;125935;1093;22790;-62
2021/07/20 06:06:26;;;;;;;17.60;5.20;;;;;;;16.61;73.44;100462.98;125909;1092;22914;-62
2021/07/20 06:09:00;;;;;;;17.93;4.60;;;;;;;16.67;73.46;100469.37;125914;1093;22780;-62
2021/07/20 06:11:33;;;;;;;19.83;5.00;;;;;;;16.72;73.39;100468.58;125955;1093;26744;-62
2021/07/20 06:14:05;;;;;;;17.10;4.35;;;;;;;16.75;72.99;100473.19;125818;1093;22795;-62
2021/07/20 06:16:40;;;;;;;15.93;4.53;;;;;;;16.80;73.06;100461.11;125927;1093;24193;-62
2021/07/20 06:19:11;;;;;;;15.80;4.80;;;;;;;16.84;72.99;100458.80;125852;1093;22797;-61
2021/07/20 06:21:46;;;;;;;13.55;3.60;;;;;;;16.90;72.70;100461.62;125776;1093;27413;-61
2021/07/20 06:24:18;;;;;;;12.70;4.20;;;;;;;16.97;72.44;100459.02;125800;1093;22813;-61
2021/07/20 06:26:53;;;;;;;18.70;5.13;;;;;;;17.07;72.47;100461.56;125937;1093;22773;-61
2021/07/20 06:29:26;;;;;;;16.10;3.90;;;;;;;17.19;72.32;100454.58;125816;1093;27610;-61
2021/07/20 06:32:01;;;;;;;11.75;3.90;;;;;;;17.32;72.09;100469.64;125811;1093;27607;-62
2021/07/20 06:34:37;;;;;;;16.65;3.15;;;;;;;17.46;72.29;100465.71;125757;1093;22860;-62
2021/07/20 06:37:09;;;;;;;12.45;3.40;;;;;;;17.61;71.78;100468.23;125845;1093;27842;-62
2021/07/20 06:39:42;;;;;;;17.25;5.15;;;;;;;17.68;71.18;100459.21;125746;1093;22770;-61
2021/07/20 06:42:17;;;;;;;14.10;4.40;;;;;;;17.73;71.39;100464.07;126001;1092;22828;-61
2021/07/20 06:44:51;;;;;;;15.10;3.80;;;;;;;17.84;70.69;100463.20;125976;1093;27276;-62
2021/07/20 06:47:23;;;;;;;13.45;3.65;;;;;;;17.89;70.70;100462.41;125743;1093;22781;-61
2021/07/20 06:49:57;;;;;;;13.93;3.53;;;;;;;17.98;70.82;100468.48;125837;1093;22774;-61
2021/07/20 06:52:28;;;;;;;16.10;4.10;;;;;;;18.02;70.21;100459.75;125791;1093;22811;-61
2021/07/20 06:55:01;;;;;;;19.67;4.50;;;;;;;18.07;70.85;100470.23;125629;1093;22786;-62
2021/07/20 06:57:33;;;;;;;13.10;3.60;;;;;;;18.12;70.50;100466.60;125648;1092;22800;-62
2021/07/20 07:00:08;;;;;;;9.50;3.50;;;;;;;18.20;69.99;100473.98;125655;1092;22751;-62
2021/07/20 07:02:45;;;;;;;9.90;3.80;;;;;;;18.20;69.40;100470.38;125834;1093;22790;-62
2021/07/20 07:05:22;;;;;;;18.15;4.45;;;;;;;18.18;69.94;100461.67;125943;1093;22899;-61
2021/07/20 07:07:56;;;;;;;10.93;3.17;;;;;;;18.21;69.63;100461.38;125791;1093;22790;-62
2021/07/20 07:10:28;;;;;;;11.80;3.25;;;;;;;18.20;69.70;100464.73;125874;1093;24435;-62
2021/07/20 07:13:05;;;;;;;13.50;4.60;;;;;;;18.19;69.68;100457.53;125920;1093;25973;-62
2021/07/20 07:15:37;;;;;;;14.60;4.35;;;;;;;18.23;69.79;100460.88;125777;1093;22773;-62
2021/07/20 07:18:09;;;;;;;16.55;3.75;;;;;;;18.22;69.30;100462.92;125942;1093;22785;-63
2021/07/20 07:20:43;;;;;;;14.90;3.20;;;;;;;18.23;69.17;100470.09;125868;1093;22824;-61
2021/07/20 07:23:16;;;;;;;15.00;3.80;;;;;;;18.22;68.91;100465.75;125855;1093;27541;-61
2021/07/20 07:25:51;;;;;;;10.20;2.80;;;;;;;18.22;69.17;100460.09;125804;1093;22791;-61
2021/07/20 07:28:24;;;;;;;12.60;3.95;;;;;;;18.24;68.90;100462.39;125855;1093;22777;-61
2021/07/20 07:30:56;;;;;;;14.77;3.33;;;;;;;18.30;68.93;100463.10;125845;1093;22781;-61
2021/07/20 07:33:28;;;;;;;12.20;3.50;;;;;;;18.29;68.88;100459.50;125846;1093;22902;-61
2021/07/20 07:36:00;;;;;;;12.45;3.40;;;;;;;18.29;69.04;100462.33;125907;1093;24436;-62
2021/07/20 07:38:34;;;;;;;15.60;3.35;;;;;;;18.27;68.51;100459.27;125999;1093;22791;-61
2021/07/20 07:41:07;;;;;;;13.23;3.03;;;;;;;18.28;69.01;100460.03;125809;1092;22764;-61
2021/07/20 07:43:43;;;;;;;14.00;3.75;;;;;;;18.32;68.94;100463.34;125798;1093;28395;-61
2021/07/20 07:46:16;;;;;;;16.47;3.70;;;;;;;18.34;68.95;100464.35;125976;1093;22773;-61
2021/07/20 07:48:48;;;;;;;14.20;3.40;;;;;;;18.39;68.66;100460.69;125845;1093;22793;-61
2021/07/20 07:51:21;;;;;;;14.43;3.77;;;;;;;18.44;68.78;100462.73;125971;1093;22776;-61
2021/07/20 07:53:58;;;;;;;11.00;2.80;;;;;;;18.54;68.80;100460.33;125830;1093;22797;-61
2021/07/20 07:56:30;;;;;;;10.50;2.90;;;;;;;18.67;68.38;100454.80;125783;1093;22758;-61
2021/07/20 07:59:03;;;;;;;10.40;2.70;;;;;;;18.76;67.96;100450.86;125884;1093;22767;-61
2021/07/20 08:01:39;;;;;;;13.70;3.67;;;;;;;18.84;68.31;100451.79;125876;1093;22765;-62
2021/07/20 08:04:12;;;;;;;14.50;3.07;;;;;;;18.91;67.09;100449.13;125815;1093;24577;-62
2021/07/20 08:06:47;;;;;;;12.83;3.07;;;;;;;18.95;67.22;100458.11;125788;1092;22796;-61
2021/07/20 08:09:20;;;;;;;9.77;2.30;;;;;;;19.01;66.70;100443.88;125855;1093;22826;-61
2021/07/20 08:11:56;;;;;;;10.23;2.40;;;;;;;19.13;67.36;100440.39;125933;1093;22822;-61
2021/07/20 08:14:28;;;;;;;9.88;2.83;;;;;;;19.20;66.42;100431.27;126071;1093;22842;-62
2021/07/20 08:17:02;;;;;;;12.37;3.10;;;;;;;19.23;67.02;100429.45;125776;1093;22794;-61
2021/07/20 08:19:39;;;;;;;10.45;2.90;;;;;;;19.29;66.33;100441.45;125965;1093;22776;-61
2021/07/20 08:22:14;;;;;;;15.73;3.28;;;;;;;19.37;65.91;100441.66;125827;1093;24436;-62
2021/07/20 08:24:55;;;;;;;9.83;2.27;;;;;;;19.41;66.30;100442.12;125735;1092;22773;-61
2021/07/20 08:27:31;;;;;;;12.40;3.20;;;;;;;19.51;66.12;100444.03;125853;1093;22733;-61
2021/07/20 08:30:05;;;;;;;12.23;2.70;;;;;;;19.56;65.61;100446.00;125920;1093;26517;-61
2021/07/20 08:32:45;;;;;;;10.28;2.60;;;;;;;19.54;65.28;100437.28;125924;1093;22764;-61
2021/07/20 08:35:20;;;;;;;13.20;2.93;;;;;;;19.62;65.28;100441.02;125784;1093;22794;-62
2021/07/20 08:37:53;;;;;;;11.78;2.23;;;;;;;19.70;64.71;100444.02;125873;1092;24469;-61
2021/07/20 08:40:37;;;;;;;12.23;2.80;;;;;;;19.75;64.69;100437.48;125883;1092;24482;-62
2021/07/20 08:43:33;;;;;;;11.48;2.63;;;;;;;19.85;64.45;100442.22;125734;1093;22768;-62
2021/07/20 08:46:27;;;;;;;10.33;2.70;;;;;;;19.89;64.36;100453.23;125718;1092;22879;-62
2021/07/20 08:49:10;;;;;;;11.40;2.30;;;;;;;19.94;64.45;100438.22;125763;1093;22802;-62
2021/07/20 08:51:53;;;;;;;13.85;3.20;;;;;;;20.01;63.91;100443.25;125879;1093;24472;-61
2021/07/20 08:54:28;;;;;;;10.28;2.50;;;;;;;20.08;62.94;100443.41;125703;1092;24472;-62
2021/07/20 08:57:05;;;;;;;10.08;2.40;;;;;;;20.15;62.91;100450.51;125883;1093;25676;-62
2021/07/20 08:59:42;;;;;;;11.70;2.53;;;;;;;20.20;62.37;100451.73;125819;1093;22794;-63
2021/07/20 09:02:32;;;;;;;9.98;2.68;;;;;;;20.17;60.96;100457.14;125802;1093;25444;-63
2021/07/20 09:05:14;;;;;;;10.55;2.45;;;;;;;20.18;61.92;100453.02;125763;1093;22808;-62
2021/07/20 09:08:04;;;;;;;13.07;2.50;;;;;;;20.21;60.97;100456.88;125863;1093;22773;-62
2021/07/20 09:10:46;;;;;;;11.13;2.25;;;;;;;20.24;60.27;100452.94;125845;1093;22745;-62
2021/07/20 09:13:27;;;;;;;13.23;2.55;;;;;;;20.27;61.12;100446.20;125869;1092;27246;-62
2021/07/20 09:16:04;;;;;;;;;;;;;;;20.36;61.02;100448.61;125749;1093;22861;-62
2021/07/20 09:18:45;;;;;;;12.73;3.13;;;;;;;20.46;60.41;100440.46;125858;1093;21456;-62
2021/07/20 09:21:18;;;;;;;10.75;2.63;;;;;;;20.54;60.37;100438.51;125856;1092;26683;-62
2021/07/20 09:23:58;;;;;;;19.30;4.28;;;;;;;20.62;61.02;100437.31;126434;1091;23287;-61
2021/07/20 09:26:36;;;;;;;10.93;2.63;;;;;;;20.77;59.66;100433.95;126467;1093;22764;-62
2021/07/20 09:29:13;;;;;;;11.28;2.68;;;;;;;20.85;59.68;100426.30;126117;1093;22729;-60
2021/07/20 09:32:11;;;;;;;11.60;2.93;;;;;;;20.91;59.59;100430.56;126039;1093;22784;-62
2021/07/20 09:35:06;;;;;;;13.30;2.58;;;;;;;21.02;57.91;100431.64;126070;1092;22767;-61
2021/07/20 09:37:54;;;;;;;8.85;2.73;;;;;;;21.09;57.68;100430.99;125991;1093;22794;-61
2021/07/20 09:40:44;;;;;;;11.27;2.43;;;;;;;21.15;57.07;100429.57;126015;1092;22921;-61
2021/07/20 09:43:30;;;;;;;13.93;2.78;;;;;;;21.15;57.15;100431.64;126029;1093;22791;-62
2021/07/20 09:46:06;;;;;;;7.90;2.40;;;;;;;21.11;57.34;100425.53;126017;1093;27134;-60
2021/07/20 09:48:44;;;;;;;10.18;2.40;;;;;;;20.98;56.58;100427.05;126063;1093;22785;-61
2021/07/20 09:51:32;;;;;;;11.88;2.60;;;;;;;20.92;56.28;100434.91;125979;1093;22721;-62
2021/07/20 09:54:14;;;;;;;11.28;2.48;;;;;;;20.84;56.70;100421.92;126024;1092;24355;-61
2021/07/20 09:57:01;;;;;;;8.30;2.53;;;;;;;20.83;56.56;100434.59;126141;1093;22791;-60
2021/07/20 09:59:48;;;;;;;9.15;2.40;;;;;;;20.82;57.30;100427.38;126253;1093;24460;-62
2021/07/20 10:02:27;;;;;;;11.53;2.45;;;;;;;20.78;57.52;100443.97;126062;1093;22772;-61
2021/07/20 10:05:06;;;;;;;15.20;2.40;;;;;;;20.63;57.58;100440.92;126018;1093;22764;-60
2021/07/20 10:07:41;;;;;;;9.77;2.33;;;;;;;20.56;57.84;100438.73;126047;1092;22770;-62
2021/07/20 10:10:19;;;;;;;8.23;2.03;;;;;;;20.53;57.39;100431.29;126228;1093;27558;-62
2021/07/20 10:13:12;;;;;;;10.25;2.43;;;;;;;20.43;57.96;100438.70;126104;1092;26258;-62
2021/07/20 10:15:56;;;;;;;11.13;2.28;;;;;;;20.38;58.02;100426.14;126039;1093;23839;-61
2021/07/20 10:18:38;;;;;;;10.27;2.00;;;;;;;20.30;57.41;100435.86;126148;1092;23012;-61
2021/07/20 10:21:14;;;;;;;8.28;1.88;;;;;;;20.24;56.84;100438.77;126112;1093;22764;-63
2021/07/20 10:24:00;;;;;;;10.33;2.10;;;;;;;20.22;55.73;100438.55;126105;1092;27205;-61
2021/07/20 10:26:55;;;;;;;9.50;2.05;;;;;;;20.17;56.08;100431.63;126117;1093;27066;-61
2021/07/20 10:29:43;;;;;;;9.60;2.28;;;;;;;20.17;56.80;100436.56;126309;1093;22781;-61
2021/07/20 10:32:20;;;;;;;9.03;2.18;;;;;;;20.20;57.22;100426.22;126531;1093;22848;-62
2021/07/20 10:34:59;;;;;;;8.08;2.03;;;;;;;20.21;56.65;100428.53;127668;1093;23250;-61
2021/07/20 10:37:36;;;;;;;12.17;2.40;;;;;;;20.20;56.63;100420.55;126087;1093;23212;-60
2021/07/20 10:40:14;;;;;;;9.63;2.15;;;;;;;20.20;56.73;100426.22;126021;1092;22813;-61
2021/07/20 10:42:50;;;;;;;9.68;2.05;;;;;;;20.22;56.37;100415.09;126034;1092;22816;-61
2021/07/20 10:45:24;;;;;;;9.65;1.90;;;;;;;20.23;56.72;100427.98;126161;1093;22872;-61
2021/07/20 10:48:02;;;;;;;7.25;1.88;;;;;;;20.25;57.00;100420.47;126137;1092;22774;-61
2021/07/20 10:50:39;;;;;;;9.85;2.25;;;;;;;20.36;57.15;100422.34;126185;1092;27551;-62
2021/07/20 10:53:25;;;;;;;13.55;2.68;;;;;;;20.40;56.34;100434.13;126271;1093;27211;-61
2021/07/20 10:56:07;;;;;;;7.98;1.83;;;;;;;20.35;56.43;100432.14;126186;1092;22788;-59
2021/07/20 10:58:51;;;;;;;12.83;2.35;;;;;;;20.30;56.51;100427.35;126087;1093;22734;-61
2021/07/20 11:01:25;;;;;;;9.45;1.88;;;;;;;20.34;56.86;100430.63;126058;1093;22763;-62
2021/07/20 11:04:13;;;;;;;8.65;1.68;;;;;;;20.36;56.76;100422.34;126157;1093;22782;-62
2021/07/20 11:06:47;;;;;;;7.35;1.60;;;;;;;20.33;55.02;100429.09;126112;1092;22756;-61
2021/07/20 11:09:22;;;;;;;5.93;1.43;;;;;;;20.27;54.17;100429.20;126165;1092;24094;-62
2021/07/20 11:11:56;;;;;;;7.63;1.97;;;;;;;20.28;55.73;100429.97;126127;1093;22764;-61
2021/07/20 11:14:31;;;;;;;9.68;1.70;;;;;;;20.32;55.55;100425.48;126347;1092;23603;-60
2021/07/20 11:17:03;;;;;;;10.30;1.85;;;;;;;20.39;56.09;100422.02;126154;1092;26276;-59
2021/07/20 11:19:37;;;;;;;8.95;1.75;;;;;;;20.42;55.89;100420.91;126147;1093;22926;-61
2021/07/20 11:22:09;;;;;;;11.25;1.78;;;;;;;20.46;56.14;100421.38;126132;1092;22799;-62
2021/07/20 11:24:42;;;;;;;9.70;1.90;;;;;;;20.55;56.38;100425.84;126146;1091;22772;-62
2021/07/20 11:27:16;;;;;;;10.20;2.50;;;;;;;20.60;54.43;100422.14;126052;1092;22764;-62
2021/07/20 11:29:48;;;;;;;9.35;1.98;;;;;;;20.57;55.30;100415.48;126111;1093;25739;-60
2021/07/20 11:32:24;;;;;;;9.53;1.80;;;;;;;20.58;54.26;100427.60;126132;1092;24461;-61
2021/07/20 11:35:01;;;;;;;10.10;2.15;;;;;;;20.54;54.75;100427.94;126131;1093;22784;-61
2021/07/20 11:37:36;;;;;;;13.85;2.23;;;;;;;20.55;55.09;100429.45;126237;1092;22783;-61
2021/07/20 11:40:14;;;;;;;9.45;2.20;;;;;;;20.59;54.86;100420.60;126182;1092;22815;-62
2021/07/20 11:42:54;;;;;;;8.10;1.63;;;;;;;20.62;54.05;100425.20;126103;1093;22922;-61
2021/07/20 11:45:30;;;;;;;8.10;2.17;;;;;;;20.62;53.71;100422.36;125948;1093;24409;-63
2021/07/20 11:48:06;;;;;;;7.73;2.13;;;;;;;20.67;54.14;100415.83;126333;1093;22712;-61